sensor_id;sensor_type;location;lat;lon;timestamp;pressure;altitude;pressure_sealevel;temperature;humidity
20424;BME280;10371;49.042;8.002;2023-02-19T00:00:34;100494.88;;;9.54;100.00
20424;BME280;10371;49.042;8.002;2023-02-19T00:01:39;100497.41;;;9.56;100.00
20424;BME280;10371;49.042;8.002;2023-02-19T00:02:40;100503.50;;;9.55;100.00
20424;BME280;10371;49.042;8.002;2023-02-19T00:03:41;100501.09;;;9.52;100.00
20424;BME280;10371;49.042;8.002;2023-02-19T00:04:42;100499.06;;;9.57;100.00
20424;BME280;10371;49.042;8.002;2023-02-19T00:05:42;100499.06;;;9.57;100.00
20424;BME280;10371;49.042;8.002;2023-02-19T00:06:43;100495.41;;;9.59;100.00
20424;BME280;10371;49.042;8.002;2023-02-19T00:07:44;100503.31;;;9.58;100.00
20424;BME280;10371;49.042;8.002;2023-02-19T00:08:44;100491.03;;;9.60;100.00
20424;BME280;10371;49.042;8.002;2023-02-19T00:09:44;100487.63;;;9.59;100.00
20424;BME280;10371;49.042;8.002;2023-02-19T00:10:45;100487.63;;;9.59;100.00
20424;BME280;10371;49.042;8.002;2023-02-19T00:11:45;100483.25;;;9.60;100.00
20424;BME280;10371;49.042;8.002;2023-02-19T00:12:46;100482.50;;;9.58;100.00
20424;BME280;10371;49.042;8.002;2023-02-19T00:13:49;100485.63;;;9.63;100.00
20424;BME280;10371;49.042;8.002;2023-02-19T00:14:49;100482.22;;;9.62;100.00
20424;BME280;10371;49.042;8.002;2023-02-19T00:15:50;100474.41;;;9.62;100.00
20424;BME280;10371;49.042;8.002;2023-02-19T00:16:50;100469.31;;;9.61;100.00
20424;BME280;10371;49.042;8.002;2023-02-19T00:17:50;100481.69;;;9.57;100.00
20424;BME280;10371;49.042;8.002;2023-02-19T00:18:51;100480.03;;;9.56;100.00
20424;BME280;10371;49.042;8.002;2023-02-19T00:19:52;100474.63;;;9.59;100.00
20424;BME280;10371;49.042;8.002;2023-02-19T00:20:54;100466.91;;;9.58;100.00
20424;BME280;10371;49.042;8.002;2023-02-19T00:21:55;100471.41;;;9.56;100.00
20424;BME280;10371;49.042;8.002;2023-02-19T00:22:55;100478.34;;;9.55;100.00
20424;BME280;10371;49.042;8.002;2023-02-19T00:23:58;100467.22;;;9.53;100.00
20424;BME280;10371;49.042;8.002;2023-02-19T00:24:58;100474.09;;;9.54;100.00
20424;BME280;10371;49.042;8.002;2023-02-19T00:26:07;100471.28;;;9.57;100.00
20424;BME280;10371;49.042;8.002;2023-02-19T00:27:07;100472.22;;;9.56;100.00
20424;BME280;10371;49.042;8.002;2023-02-19T00:28:07;100465.16;;;9.58;100.00
20424;BME280;10371;49.042;8.002;2023-02-19T00:29:11;100462.66;;;9.57;100.00
20424;BME280;10371;49.042;8.002;2023-02-19T00:30:12;100459.09;;;9.58;100.00
20424;BME280;10371;49.042;8.002;2023-02-19T00:31:18;100455.88;;;9.54;100.00
20424;BME280;10371;49.042;8.002;2023-02-19T00:32:19;100463.69;;;9.54;100.00
20424;BME280;10371;49.042;8.002;2023-02-19T00:33:19;100459.53;;;9.52;100.00
20424;BME280;10371;49.042;8.002;2023-02-19T00:34:19;100457.13;;;9.49;100.00
20424;BME280;10371;49.042;8.002;2023-02-19T00:35:20;100451.19;;;9.47;100.00
20424;BME280;10371;49.042;8.002;2023-02-19T00:36:21;100446.94;;;9.46;100.00
20424;BME280;10371;49.042;8.002;2023-02-19T00:37:21;100441.00;;;9.44;100.00
20424;BME280;10371;49.042;8.002;2023-02-19T00:38:22;100439.97;;;9.46;100.00
20424;BME280;10371;49.042;8.002;2023-02-19T00:39:22;100439.34;;;9.43;100.00
20424;BME280;10371;49.042;8.002;2023-02-19T00:40:22;100443.94;;;9.39;100.00
20424;BME280;10371;49.042;8.002;2023-02-19T00:41:25;100446.31;;;9.42;100.00
20424;BME280;10371;49.042;8.002;2023-02-19T00:42:25;100444.94;;;9.36;100.00
20424;BME280;10371;49.042;8.002;2023-02-19T00:43:26;100446.81;;;9.34;100.00
20424;BME280;10371;49.042;8.002;2023-02-19T00:44:26;100455.56;;;9.33;100.00
20424;BME280;10371;49.042;8.002;2023-02-19T00:45:26;100460.63;;;9.35;100.00
20424;BME280;10371;49.042;8.002;2023-02-19T00:46:35;100453.66;;;9.35;100.00
20424;BME280;10371;49.042;8.002;2023-02-19T00:47:36;100461.47;;;9.35;100.00
20424;BME280;10371;49.042;8.002;2023-02-19T00:48:36;100467.59;;;9.34;100.00
20424;BME280;10371;49.042;8.002;2023-02-19T00:49:36;100469.47;;;9.32;100.00
20424;BME280;10371;49.042;8.002;2023-02-19T00:50:36;100460.75;;;9.33;100.00
20424;BME280;10371;49.042;8.002;2023-02-19T00:51:37;100473.34;;;9.39;100.00
20424;BME280;10371;49.042;8.002;2023-02-19T00:52:38;100460.34;;;9.39;100.00
20424;BME280;10371;49.042;8.002;2023-02-19T00:53:39;100468.22;;;9.38;100.00
20424;BME280;10371;49.042;8.002;2023-02-19T00:54:39;100466.78;;;9.34;100.00
20424;BME280;10371;49.042;8.002;2023-02-19T00:55:39;100463.22;;;9.35;100.00
20424;BME280;10371;49.042;8.002;2023-02-19T00:56:40;100464.06;;;9.35;100.00
20424;BME280;10371;49.042;8.002;2023-02-19T00:57:40;100458.84;;;9.35;100.00
20424;BME280;10371;49.042;8.002;2023-02-19T00:58:40;100462.94;;;9.39;100.00
20424;BME280;10371;49.042;8.002;2023-02-19T00:59:40;100462.28;;;9.36;100.00
20424;BME280;10371;49.042;8.002;2023-02-19T01:00:41;100455.75;;;9.43;100.00
20424;BME280;10371;49.042;8.002;2023-02-19T01:01:42;100464.38;;;9.44;100.00
20424;BME280;10371;49.042;8.002;2023-02-19T01:02:43;100461.38;;;9.50;100.00
20424;BME280;10371;49.042;8.002;2023-02-19T01:03:44;100459.94;;;9.46;100.00
20424;BME280;10371;49.042;8.002;2023-02-19T01:04:44;100460.13;;;9.43;100.00
20424;BME280;10371;49.042;8.002;2023-02-19T01:05:44;100462.44;;;9.47;100.00
20424;BME280;10371;49.042;8.002;2023-02-19T01:06:45;100469.38;;;9.47;100.00
20424;BME280;10371;49.042;8.002;2023-02-19T01:07:45;100462.63;;;9.44;100.00
20424;BME280;10371;49.042;8.002;2023-02-19T01:08:45;100465.47;;;9.54;100.00
20424;BME280;10371;49.042;8.002;2023-02-19T01:09:46;100459.00;;;9.47;100.00
20424;BME280;10371;49.042;8.002;2023-02-19T01:10:46;100457.53;;;9.43;100.00
20424;BME280;10371;49.042;8.002;2023-02-19T01:11:47;100462.00;;;9.40;100.00
20424;BME280;10371;49.042;8.002;2023-02-19T01:12:47;100464.06;;;9.35;100.00
20424;BME280;10371;49.042;8.002;2023-02-19T01:13:47;100458.16;;;9.33;100.00
20424;BME280;10371;49.042;8.002;2023-02-19T01:14:48;100463.50;;;9.30;100.00
20424;BME280;10371;49.042;8.002;2023-02-19T01:15:48;100467.81;;;9.31;100.00
20424;BME280;10371;49.042;8.002;2023-02-19T01:16:48;100459.06;;;9.32;100.00
20424;BME280;10371;49.042;8.002;2023-02-19T01:17:49;100468.53;;;9.33;100.00
20424;BME280;10371;49.042;8.002;2023-02-19T01:18:49;100460.53;;;9.36;100.00
20424;BME280;10371;49.042;8.002;2023-02-19T01:19:49;100465.94;;;9.33;100.00
20424;BME280;10371;49.042;8.002;2023-02-19T01:20:49;100463.22;;;9.35;100.00
20424;BME280;10371;49.042;8.002;2023-02-19T01:21:50;100459.88;;;9.33;100.00
20424;BME280;10371;49.042;8.002;2023-02-19T01:22:50;100460.09;;;9.30;100.00
20424;BME280;10371;49.042;8.002;2023-02-19T01:23:51;100466.13;;;9.30;100.00
20424;BME280;10371;49.042;8.002;2023-02-19T01:24:52;100463.44;;;9.32;100.00
20424;BME280;10371;49.042;8.002;2023-02-19T01:25:52;100460.91;;;9.30;100.00
20424;BME280;10371;49.042;8.002;2023-02-19T01:26:52;100473.91;;;9.30;100.00
20424;BME280;10371;49.042;8.002;2023-02-19T01:27:52;100473.75;;;9.33;100.00
20424;BME280;10371;49.042;8.002;2023-02-19T01:28:53;100487.75;;;9.31;100.00
20424;BME280;10371;49.042;8.002;2023-02-19T01:29:53;100477.44;;;9.29;100.00
20424;BME280;10371;49.042;8.002;2023-02-19T01:30:53;100480.25;;;9.26;100.00
20424;BME280;10371;49.042;8.002;2023-02-19T01:31:54;100479.09;;;9.30;100.00
20424;BME280;10371;49.042;8.002;2023-02-19T01:32:54;100474.78;;;9.31;100.00
20424;BME280;10371;49.042;8.002;2023-02-19T01:34:00;100473.53;;;9.36;100.00
20424;BME280;10371;49.042;8.002;2023-02-19T01:35:00;100479.16;;;9.43;100.00
20424;BME280;10371;49.042;8.002;2023-02-19T01:36:05;100484.44;;;9.42;100.00
20424;BME280;10371;49.042;8.002;2023-02-19T01:37:06;100475.94;;;9.39;100.00
20424;BME280;10371;49.042;8.002;2023-02-19T01:38:10;100461.47;;;9.35;100.00
20424;BME280;10371;49.042;8.002;2023-02-19T01:39:11;100470.19;;;9.34;100.00
20424;BME280;10371;49.042;8.002;2023-02-19T01:40:11;100467.81;;;9.31;100.00
20424;BME280;10371;49.042;8.002;2023-02-19T01:41:14;100472.25;;;9.29;100.00
20424;BME280;10371;49.042;8.002;2023-02-19T01:42:15;100465.59;;;9.25;100.00
20424;BME280;10371;49.042;8.002;2023-02-19T01:43:16;100467.66;;;9.20;100.00
20424;BME280;10371;49.042;8.002;2023-02-19T01:45:29;100468.97;;;9.13;100.00
20424;BME280;10371;49.042;8.002;2023-02-19T01:46:34;100466.38;;;9.13;100.00
20424;BME280;10371;49.042;8.002;2023-02-19T01:47:35;100452.97;;;9.06;100.00
20424;BME280;10371;49.042;8.002;2023-02-19T01:48:37;100452.34;;;9.03;100.00
20424;BME280;10371;49.042;8.002;2023-02-19T01:49:44;100448.78;;;9.04;100.00
20424;BME280;10371;49.042;8.002;2023-02-19T01:51:14;100442.31;;;8.97;100.00
20424;BME280;10371;49.042;8.002;2023-02-19T01:52:21;100435.75;;;8.91;100.00
20424;BME280;10371;49.042;8.002;2023-02-19T01:53:23;100423.09;;;8.86;100.00
20424;BME280;10371;49.042;8.002;2023-02-19T01:54:31;100431.25;;;8.80;100.00
20424;BME280;10371;49.042;8.002;2023-02-19T01:55:34;100423.56;;;8.79;100.00
20424;BME280;10371;49.042;8.002;2023-02-19T01:56:36;100433.31;;;8.75;100.00
20424;BME280;10371;49.042;8.002;2023-02-19T01:57:41;100433.19;;;8.77;100.00
20424;BME280;10371;49.042;8.002;2023-02-19T01:58:43;100435.56;;;8.67;100.00
20424;BME280;10371;49.042;8.002;2023-02-19T01:59:46;100438.25;;;8.65;100.00
20424;BME280;10371;49.042;8.002;2023-02-19T02:00:49;100435.00;;;8.62;100.00
20424;BME280;10371;49.042;8.002;2023-02-19T02:01:50;100430.22;;;8.56;100.00
20424;BME280;10371;49.042;8.002;2023-02-19T02:02:52;100445.66;;;8.57;100.00
20424;BME280;10371;49.042;8.002;2023-02-19T02:03:53;100442.25;;;8.57;100.00
20424;BME280;10371;49.042;8.002;2023-02-19T02:04:55;100438.91;;;8.55;100.00
20424;BME280;10371;49.042;8.002;2023-02-19T02:06:08;100445.59;;;8.59;100.00
20424;BME280;10371;49.042;8.002;2023-02-19T02:07:10;100434.28;;;8.60;100.00
20424;BME280;10371;49.042;8.002;2023-02-19T02:08:30;100449.66;;;8.63;100.00
20424;BME280;10371;49.042;8.002;2023-02-19T02:09:51;100446.13;;;8.64;100.00
20424;BME280;10371;49.042;8.002;2023-02-19T02:11:10;100443.53;;;8.64;100.00
20424;BME280;10371;49.042;8.002;2023-02-19T02:12:11;100445.19;;;8.65;100.00
20424;BME280;10371;49.042;8.002;2023-02-19T02:13:11;100443.63;;;8.62;100.00
20424;BME280;10371;49.042;8.002;2023-02-19T02:14:12;100445.00;;;8.68;100.00
20424;BME280;10371;49.042;8.002;2023-02-19T02:15:14;100445.00;;;8.68;100.00
20424;BME280;10371;49.042;8.002;2023-02-19T02:16:21;100452.72;;;8.69;100.00
20424;BME280;10371;49.042;8.002;2023-02-19T02:17:30;100447.41;;;8.71;100.00
20424;BME280;10371;49.042;8.002;2023-02-19T02:23:09;100426.72;;;8.84;100.00
20424;BME280;10371;49.042;8.002;2023-02-19T02:24:40;100430.00;;;8.86;100.00
20424;BME280;10371;49.042;8.002;2023-02-19T02:25:58;100436.16;;;8.85;100.00
20424;BME280;10371;49.042;8.002;2023-02-19T02:27:15;100422.34;;;8.84;100.00
20424;BME280;10371;49.042;8.002;2023-02-19T02:29:55;100421.31;;;8.87;100.00
20424;BME280;10371;49.042;8.002;2023-02-19T02:31:03;100421.31;;;8.87;100.00
20424;BME280;10371;49.042;8.002;2023-02-19T02:32:12;100427.41;;;8.86;100.00
20424;BME280;10371;49.042;8.002;2023-02-19T02:34:59;100417.88;;;8.86;100.00
20424;BME280;10371;49.042;8.002;2023-02-19T02:36:06;100418.81;;;8.85;100.00
20424;BME280;10371;49.042;8.002;2023-02-19T02:37:08;100424.09;;;8.84;100.00
20424;BME280;10371;49.042;8.002;2023-02-19T02:38:10;100423.38;;;8.82;100.00
20424;BME280;10371;49.042;8.002;2023-02-19T02:39:14;100428.56;;;8.82;100.00
20424;BME280;10371;49.042;8.002;2023-02-19T02:40:16;100423.66;;;8.77;100.00
20424;BME280;10371;49.042;8.002;2023-02-19T02:41:18;100418.78;;;8.72;100.00
20424;BME280;10371;49.042;8.002;2023-02-19T02:42:19;100429.78;;;8.76;100.00
20424;BME280;10371;49.042;8.002;2023-02-19T02:43:28;100423.13;;;8.72;100.00
20424;BME280;10371;49.042;8.002;2023-02-19T02:44:35;100420.63;;;8.70;100.00
20424;BME280;10371;49.042;8.002;2023-02-19T02:45:36;100422.38;;;8.70;100.00
20424;BME280;10371;49.042;8.002;2023-02-19T02:46:40;100417.28;;;8.68;100.00
20424;BME280;10371;49.042;8.002;2023-02-19T02:47:46;100417.28;;;8.68;100.00
20424;BME280;10371;49.042;8.002;2023-02-19T02:48:56;100414.78;;;8.67;100.00
20424;BME280;10371;49.042;8.002;2023-02-19T02:49:57;100416.56;;;8.66;100.00
20424;BME280;10371;49.042;8.002;2023-02-19T02:51:15;100409.69;;;8.65;100.00
20424;BME280;10371;49.042;8.002;2023-02-19T02:52:20;100406.06;;;8.68;100.00
20424;BME280;10371;49.042;8.002;2023-02-19T02:53:49;100401.50;;;8.71;100.00
20424;BME280;10371;49.042;8.002;2023-02-19T02:55:09;100401.81;;;8.67;100.00
20424;BME280;10371;49.042;8.002;2023-02-19T02:56:12;100400.88;;;8.68;100.00
20424;BME280;10371;49.042;8.002;2023-02-19T02:57:15;100400.13;;;8.66;100.00
20424;BME280;10371;49.042;8.002;2023-02-19T02:58:16;100407.22;;;8.64;100.00
20424;BME280;10371;49.042;8.002;2023-02-19T02:59:21;100396.09;;;8.62;100.00
20424;BME280;10371;49.042;8.002;2023-02-19T03:00:23;100403.13;;;8.60;100.00
20424;BME280;10371;49.042;8.002;2023-02-19T03:01:42;100403.13;;;8.60;100.00
20424;BME280;10371;49.042;8.002;2023-02-19T03:03:01;100400.53;;;8.60;100.00
20424;BME280;10371;49.042;8.002;2023-02-19T03:04:07;100392.75;;;8.60;100.00
20424;BME280;10371;49.042;8.002;2023-02-19T03:05:14;100398.75;;;8.60;100.00
20424;BME280;10371;49.042;8.002;2023-02-19T03:06:35;100389.41;;;8.58;100.00
20424;BME280;10371;49.042;8.002;2023-02-19T03:07:52;100399.97;;;8.55;100.00
20424;BME280;10371;49.042;8.002;2023-02-19T03:09:06;100396.28;;;8.59;100.00
20424;BME280;10371;49.042;8.002;2023-02-19T03:10:12;100390.16;;;8.60;100.00
20424;BME280;10371;49.042;8.002;2023-02-19T03:11:14;100393.38;;;8.63;100.00
20424;BME280;10371;49.042;8.002;2023-02-19T03:12:34;100390.69;;;8.65;100.00
20424;BME280;10371;49.042;8.002;2023-02-19T03:15:30;100387.16;;;8.66;100.00
20424;BME280;10371;49.042;8.002;2023-02-19T03:16:55;100390.59;;;8.66;100.00
20424;BME280;10371;49.042;8.002;2023-02-19T03:18:17;100395.81;;;8.66;100.00
20424;BME280;10371;49.042;8.002;2023-02-19T03:19:41;100397.34;;;8.69;100.00
20424;BME280;10371;49.042;8.002;2023-02-19T03:20:45;100397.19;;;8.72;100.00
20424;BME280;10371;49.042;8.002;2023-02-19T03:21:59;100392.41;;;8.79;100.00
20424;BME280;10371;49.042;8.002;2023-02-19T03:23:01;100398.63;;;8.76;100.00
20424;BME280;10371;49.042;8.002;2023-02-19T03:24:02;100396.22;;;8.73;100.00
20424;BME280;10371;49.042;8.002;2023-02-19T03:25:27;100402.16;;;8.75;100.00
20424;BME280;10371;49.042;8.002;2023-02-19T03:26:49;100405.59;;;8.76;100.00
20424;BME280;10371;49.042;8.002;2023-02-19T03:27:55;100404.03;;;8.73;100.00
20424;BME280;10371;49.042;8.002;2023-02-19T03:28:57;100398.81;;;8.73;100.00
20424;BME280;10371;49.042;8.002;2023-02-19T03:30:20;100406.81;;;8.70;100.00
20424;BME280;10371;49.042;8.002;2023-02-19T03:31:24;100398.19;;;8.69;100.00
20424;BME280;10371;49.042;8.002;2023-02-19T03:33:35;100395.84;;;8.79;100.00
20424;BME280;10371;49.042;8.002;2023-02-19T03:34:41;100407.16;;;8.78;100.00
20424;BME280;10371;49.042;8.002;2023-02-19T03:35:50;100404.44;;;8.80;100.00
20424;BME280;10371;49.042;8.002;2023-02-19T03:36:59;100411.22;;;8.82;100.00
20424;BME280;10371;49.042;8.002;2023-02-19T03:38:16;100410.38;;;8.82;100.00
20424;BME280;10371;49.042;8.002;2023-02-19T03:39:25;100400.81;;;8.82;100.00
20424;BME280;10371;49.042;8.002;2023-02-19T03:40:28;100411.22;;;8.82;100.00
20424;BME280;10371;49.042;8.002;2023-02-19T03:42:04;100409.16;;;8.87;100.00
20424;BME280;10371;49.042;8.002;2023-02-19T03:43:18;100405.81;;;8.85;100.00
20424;BME280;10371;49.042;8.002;2023-02-19T03:45:43;100407.78;;;8.82;100.00
20424;BME280;10371;49.042;8.002;2023-02-19T03:46:55;100411.94;;;8.84;100.00
20424;BME280;10371;49.042;8.002;2023-02-19T03:48:08;100412.91;;;8.83;100.00
20424;BME280;10371;49.042;8.002;2023-02-19T03:50:26;100407.38;;;8.88;100.00
20424;BME280;10371;49.042;8.002;2023-02-19T03:51:38;100404.59;;;8.91;100.00
20424;BME280;10371;49.042;8.002;2023-02-19T03:55:22;100416.56;;;8.93;100.00
20424;BME280;10371;49.042;8.002;2023-02-19T03:56:32;100407.84;;;8.94;100.00
20424;BME280;10371;49.042;8.002;2023-02-19T03:57:55;100409.50;;;8.95;100.00
20424;BME280;10371;49.042;8.002;2023-02-19T04:01:38;100408.56;;;8.97;100.00
20424;BME280;10371;49.042;8.002;2023-02-19T04:02:46;100399.94;;;8.96;100.00
20424;BME280;10371;49.042;8.002;2023-02-19T04:04:09;100403.91;;;9.02;100.00
20424;BME280;10371;49.042;8.002;2023-02-19T04:05:18;100409.94;;;9.02;100.00
20424;BME280;10371;49.042;8.002;2023-02-19T04:06:26;100397.88;;;9.01;100.00
20424;BME280;10371;49.042;8.002;2023-02-19T04:07:30;100415.56;;;9.09;100.00
20424;BME280;10371;49.042;8.002;2023-02-19T04:08:33;100412.44;;;9.04;100.00
20424;BME280;10371;49.042;8.002;2023-02-19T04:09:36;100418.47;;;9.04;100.00
20424;BME280;10371;49.042;8.002;2023-02-19T04:10:39;100412.25;;;9.07;100.00
20424;BME280;10371;49.042;8.002;2023-02-19T04:11:40;100429.66;;;9.05;100.00
20424;BME280;10371;49.042;8.002;2023-02-19T04:12:44;100421.19;;;9.03;100.00
20424;BME280;10371;49.042;8.002;2023-02-19T04:14:06;100416.81;;;9.03;100.00
20424;BME280;10371;49.042;8.002;2023-02-19T04:15:11;100419.09;;;9.08;100.00
20424;BME280;10371;49.042;8.002;2023-02-19T04:16:20;100423.06;;;9.13;100.00
20424;BME280;10371;49.042;8.002;2023-02-19T04:17:28;100424.28;;;9.08;100.00
20424;BME280;10371;49.042;8.002;2023-02-19T04:18:33;100422.81;;;9.04;100.00
20424;BME280;10371;49.042;8.002;2023-02-19T04:19:36;100419.41;;;9.03;100.00
20424;BME280;10371;49.042;8.002;2023-02-19T04:20:41;100427.63;;;9.10;100.00
20424;BME280;10371;49.042;8.002;2023-02-19T04:21:43;100429.47;;;9.08;100.00
20424;BME280;10371;49.042;8.002;2023-02-19T04:22:44;100434.38;;;9.12;100.00
20424;BME280;10371;49.042;8.002;2023-02-19T04:23:45;100422.44;;;9.10;100.00
20424;BME280;10371;49.042;8.002;2023-02-19T04:24:48;100434.59;;;9.09;100.00
20424;BME280;10371;49.042;8.002;2023-02-19T04:25:53;100427.63;;;9.10;100.00
20424;BME280;10371;49.042;8.002;2023-02-19T04:26:55;100434.47;;;9.11;100.00
20424;BME280;10371;49.042;8.002;2023-02-19T04:27:56;100441.34;;;9.12;100.00
20424;BME280;10371;49.042;8.002;2023-02-19T04:28:58;100435.41;;;9.10;100.00
20424;BME280;10371;49.042;8.002;2023-02-19T04:29:58;100434.28;;;9.14;100.00
20424;BME280;10371;49.042;8.002;2023-02-19T04:30:58;100436.91;;;9.14;100.00
20424;BME280;10371;49.042;8.002;2023-02-19T04:31:59;100437.94;;;9.11;100.00
20424;BME280;10371;49.042;8.002;2023-02-19T04:32:59;100437.81;;;9.13;100.00
20424;BME280;10371;49.042;8.002;2023-02-19T04:34:01;100435.22;;;9.13;100.00
20424;BME280;10371;49.042;8.002;2023-02-19T04:35:03;100456.81;;;9.13;100.00
20424;BME280;10371;49.042;8.002;2023-02-19T04:36:03;100442.91;;;9.14;100.00
20424;BME280;10371;49.042;8.002;2023-02-19T04:37:04;100450.06;;;9.11;100.00
20424;BME280;10371;49.042;8.002;2023-02-19T04:38:04;100443.19;;;9.10;100.00
20424;BME280;10371;49.042;8.002;2023-02-19T04:39:05;100452.56;;;9.12;100.00
20424;BME280;10371;49.042;8.002;2023-02-19T04:40:07;100449.34;;;9.09;100.00
20424;BME280;10371;49.042;8.002;2023-02-19T04:41:08;100449.88;;;9.14;100.00
20424;BME280;10371;49.042;8.002;2023-02-19T04:42:09;100461.09;;;9.14;100.00
20424;BME280;10371;49.042;8.002;2023-02-19T04:43:09;100457.56;;;9.15;100.00
20424;BME280;10371;49.042;8.002;2023-02-19T04:44:10;100451.88;;;9.23;100.00
20424;BME280;10371;49.042;8.002;2023-02-19T04:45:10;100458.63;;;9.26;100.00
20424;BME280;10371;49.042;8.002;2023-02-19T04:46:10;100451.75;;;9.25;100.00
20424;BME280;10371;49.042;8.002;2023-02-19T04:47:10;100467.25;;;9.26;100.00
20424;BME280;10371;49.042;8.002;2023-02-19T04:48:11;100459.66;;;9.23;100.00
20424;BME280;10371;49.042;8.002;2023-02-19T04:49:11;100465.59;;;9.25;100.00
20424;BME280;10371;49.042;8.002;2023-02-19T04:50:12;100469.13;;;9.24;100.00
20424;BME280;10371;49.042;8.002;2023-02-19T04:51:12;100478.59;;;9.25;100.00
20424;BME280;10371;49.042;8.002;2023-02-19T04:52:12;100468.22;;;9.25;100.00
20424;BME280;10371;49.042;8.002;2023-02-19T04:53:13;100472.47;;;9.26;100.00
20424;BME280;10371;49.042;8.002;2023-02-19T04:54:13;100479.44;;;9.26;100.00
20424;BME280;10371;49.042;8.002;2023-02-19T04:55:13;100483.59;;;9.28;100.00
20424;BME280;10371;49.042;8.002;2023-02-19T04:56:15;100483.28;;;9.33;100.00
20424;BME280;10371;49.042;8.002;2023-02-19T04:57:15;100486.19;;;9.28;100.00
20424;BME280;10371;49.042;8.002;2023-02-19T04:58:16;100489.63;;;9.29;100.00
20424;BME280;10371;49.042;8.002;2023-02-19T04:59:16;100481.81;;;9.29;100.00
20424;BME280;10371;49.042;8.002;2023-02-19T05:00:16;100474.03;;;9.29;100.00
20424;BME280;10371;49.042;8.002;2023-02-19T05:01:17;100476.50;;;9.30;100.00
20424;BME280;10371;49.042;8.002;2023-02-19T05:02:17;100479.09;;;9.30;100.00
20424;BME280;10371;49.042;8.002;2023-02-19T05:03:18;100481.91;;;9.27;100.00
20424;BME280;10371;49.042;8.002;2023-02-19T05:04:18;100475.69;;;9.30;100.00
20424;BME280;10371;49.042;8.002;2023-02-19T05:05:18;100467.19;;;9.28;100.00
20424;BME280;10371;49.042;8.002;2023-02-19T05:06:18;100471.84;;;9.23;100.00
20424;BME280;10371;49.042;8.002;2023-02-19T05:07:19;100463.22;;;9.22;100.00
20424;BME280;10371;49.042;8.002;2023-02-19T05:08:19;100468.41;;;9.22;100.00
20424;BME280;10371;49.042;8.002;2023-02-19T05:09:19;100466.72;;;9.21;100.00
20424;BME280;10371;49.042;8.002;2023-02-19T05:10:20;100456.44;;;9.20;100.00
20424;BME280;10371;49.042;8.002;2023-02-19T05:11:20;100460.69;;;9.21;100.00
20424;BME280;10371;49.042;8.002;2023-02-19T05:12:22;100461.31;;;9.24;100.00
20424;BME280;10371;49.042;8.002;2023-02-19T05:13:23;100457.16;;;9.22;100.00
20424;BME280;10371;49.042;8.002;2023-02-19T05:14:23;100461.31;;;9.24;100.00
20424;BME280;10371;49.042;8.002;2023-02-19T05:15:23;100460.28;;;9.27;100.00
20424;BME280;10371;49.042;8.002;2023-02-19T05:16:24;100469.66;;;9.29;100.00
20424;BME280;10371;49.042;8.002;2023-02-19T05:17:24;100461.78;;;9.31;100.00
20424;BME280;10371;49.042;8.002;2023-02-19T05:18:25;100453.31;;;9.27;100.00
20424;BME280;10371;49.042;8.002;2023-02-19T05:19:25;100456.13;;;9.24;100.00
20424;BME280;10371;49.042;8.002;2023-02-19T05:20:25;100448.25;;;9.26;100.00
20424;BME280;10371;49.042;8.002;2023-02-19T05:21:25;100457.69;;;9.27;100.00
20424;BME280;10371;49.042;8.002;2023-02-19T05:22:28;100463.63;;;9.29;100.00
20424;BME280;10371;49.042;8.002;2023-02-19T05:23:28;100462.81;;;9.28;100.00
20424;BME280;10371;49.042;8.002;2023-02-19T05:24:29;100462.06;;;9.26;100.00
20424;BME280;10371;49.042;8.002;2023-02-19T05:25:30;100469.78;;;9.28;100.00
20424;BME280;10371;49.042;8.002;2023-02-19T05:26:30;100469.13;;;9.24;100.00
20424;BME280;10371;49.042;8.002;2023-02-19T05:27:31;100473.41;;;9.25;100.00
20424;BME280;10371;49.042;8.002;2023-02-19T05:28:31;100469.94;;;9.25;100.00
20424;BME280;10371;49.042;8.002;2023-02-19T05:29:31;100475.25;;;9.23;100.00
20424;BME280;10371;49.042;8.002;2023-02-19T05:30:32;100484.41;;;9.29;100.00
20424;BME280;10371;49.042;8.002;2023-02-19T05:31:32;100482.75;;;9.28;100.00
20424;BME280;10371;49.042;8.002;2023-02-19T05:32:34;100479.03;;;9.32;100.00
20424;BME280;10371;49.042;8.002;2023-02-19T05:33:34;100473.00;;;9.31;100.00
20424;BME280;10371;49.042;8.002;2023-02-19T05:34:34;100474.03;;;9.29;100.00
20424;BME280;10371;49.042;8.002;2023-02-19T05:35:50;100474.31;;;9.24;100.00
20424;BME280;10371;49.042;8.002;2023-02-19T05:36:50;100482.03;;;9.26;100.00
20424;BME280;10371;49.042;8.002;2023-02-19T05:37:51;100485.44;;;9.26;100.00
20424;BME280;10371;49.042;8.002;2023-02-19T05:38:53;100483.06;;;9.23;100.00
20424;BME280;10371;49.042;8.002;2023-02-19T05:39:53;100492.41;;;9.26;100.00
20424;BME280;10371;49.042;8.002;2023-02-19T05:40:53;100492.22;;;9.29;100.00
20424;BME280;10371;49.042;8.002;2023-02-19T05:41:53;100474.84;;;9.29;100.00
20424;BME280;10371;49.042;8.002;2023-02-19T05:42:54;100486.91;;;9.30;100.00
20424;BME280;10371;49.042;8.002;2023-02-19T05:43:55;100482.09;;;9.24;100.00
20424;BME280;10371;49.042;8.002;2023-02-19T05:44:56;100489.91;;;9.24;100.00
20424;BME280;10371;49.042;8.002;2023-02-19T05:45:59;100484.00;;;9.22;100.00
20424;BME280;10371;49.042;8.002;2023-02-19T05:46:59;100493.53;;;9.22;100.00
20424;BME280;10371;49.042;8.002;2023-02-19T05:48:00;100489.34;;;9.19;100.00
20424;BME280;10371;49.042;8.002;2023-02-19T05:49:00;100491.66;;;9.24;100.00
20424;BME280;10371;49.042;8.002;2023-02-19T05:50:01;100492.69;;;9.21;100.00
20424;BME280;10371;49.042;8.002;2023-02-19T05:51:11;100482.31;;;9.21;100.00
20424;BME280;10371;49.042;8.002;2023-02-19T05:52:11;100483.13;;;9.22;100.00
20424;BME280;10371;49.042;8.002;2023-02-19T05:53:12;100483.06;;;9.23;100.00
20424;BME280;10371;49.042;8.002;2023-02-19T05:54:12;100479.44;;;9.26;100.00